Date,TemperatureHighF,TemperatureAvgF,TemperatureLowF,DewpointHighF,DewpointAvgF,DewpointLowF,HumidityHigh,HumidityAvg,HumidityLow,PressureMaxIn,PressureMinIn,WindSpeedMaxMPH,WindSpeedAvgMPH,GustSpeedMaxMPH,PrecipitationSumIn
2013-5-1,61.9,50.8,37.3,47.8,40.3,34.5,94,69,40,30.49,30.33,10,3,17,0.00
2013-5-2,67.0,53.6,37.9,47.8,41.0,35.8,94,66,36,30.48,30.35,7,2,11,0.00
2013-5-3,58.4,51.4,43.0,45.9,41.6,35.3,90,70,48,30.46,30.36,11,3,21,0.00
2013-5-4,61.4,50.4,39.1,47.5,41.5,37.0,94,74,46,30.38,30.26,10,2,16,0.00
2013-5-5,55.7,48.4,39.3,44.5,40.7,36.3,92,75,61,30.30,30.23,10,2,17,0.00
2013-5-6,60.8,52.5,46.1,51.9,47.1,42.9,93,82,68,30.27,30.17,9,2,14,0.00
2013-5-7,65.6,56.0,49.3,58.2,52.8,47.2,95,89,76,30.17,30.09,9,2,14,0.04
2013-5-8,70.1,61.0,55.1,64.4,56.8,51.6,95,87,59,30.10,29.94,9,2,15,0.98
2013-5-9,69.6,60.4,53.9,58.6,54.6,51.0,95,82,58,30.01,29.91,9,2,13,0.45
2013-5-10,80.8,65.5,51.1,60.5,55.7,49.1,95,73,38,30.01,29.89,10,2,14,0.00
2013-5-11,75.5,65.6,62.2,65.9,61.5,57.1,95,87,68,29.92,29.70,11,3,22,0.78
2013-5-12,65.8,60.1,50.3,62.3,43.5,25.9,95,59,28,29.97,29.68,17,6,25,0.03
2013-5-13,55.7,49.3,40.5,35.0,30.4,23.6,75,49,31,30.12,29.97,15,4,21,0.00
2013-5-14,60.3,48.8,35.5,35.1,30.6,22.9,87,53,24,30.16,30.05,12,2,17,0.00
2013-5-15,73.4,60.8,44.7,57.9,49.4,32.0,81,67,49,30.10,29.70,12,-1,17,0.00
2013-5-16,79.0,67.0,55.3,61.0,55.9,48.6,93,70,39,29.85,29.71,11,1,17,0.01
2013-5-17,73.0,63.5,49.7,57.7,44.7,37.0,89,53,29,30.21,29.84,10,2,15,0.00
2013-5-18,65.2,57.1,49.8,55.5,51.6,45.3,91,82,64,30.32,30.20,7,1,11,0.03
2013-5-19,58.9,57.0,54.8,57.8,55.3,52.5,96,94,91,30.30,30.17,10,2,17,0.30
2013-5-20,79.5,67.6,58.5,69.2,63.4,57.4,96,87,65,30.18,29.98,7,1,13,0.05
2013-5-21,84.0,74.1,64.3,70.3,66.6,62.6,96,79,58,29.99,29.85,10,3,15,0.01
2013-5-22,85.3,73.7,67.0,73.5,68.1,64.8,94,84,59,29.93,29.83,8,3,12,0.00
2013-5-23,80.5,72.1,66.8,71.1,66.7,63.9,93,84,64,29.91,29.76,14,5,22,0.22
2013-5-24,67.0,56.1,44.5,64.0,53.1,41.1,95,90,78,29.98,29.70,10,3,19,0.36
2013-5-25,58.5,50.7,43.6,44.9,40.1,34.5,92,70,44,30.04,29.94,16,6,30,0.12
2013-5-26,68.1,56.9,45.9,41.8,37.1,31.8,74,50,27,30.21,30.01,17,5,24,0.00
2013-5-27,72.2,57.9,38.3,45.4,39.4,34.1,92,55,27,30.27,30.15,11,2,16,0.00
2013-5-28,66.3,58.7,48.2,59.9,53.3,44.8,95,83,57,30.24,30.12,6,-3,12,0.37
2013-5-29,87.2,72.5,57.8,70.1,62.9,56.4,96,75,46,30.14,30.02,10,3,17,0.01
2013-5-30,90.7,80.2,69.2,69.3,65.2,59.7,86,63,37,30.15,30.06,8,3,12,0.00
2013-5-31,92.2,80.5,68.0,70.6,64.4,52.9,91,62,28,30.14,30.00,9,3,14,0.00